Terminal Aerodrome Forecast
Issued by NWS Lake Charles, LA

Home | Current Version | Previous Version | Text Only | Print | Product List | Glossary On
Versions: 1 2 3 4 5 6 7 8 9 10 11 12 13 14 15 16 17 18 19 20 21 22
000
FTUS44 KLCH 292101 AAA
TAFAEX
TAF AMD
KAEX 292101Z 2921/3018 16014KT P6SM SCT027 BKN045
     FM292300 17006KT P6SM SCT060 OVC130
     FM301100 15003KT 3SM BR BKN012 BKN090
     FM301500 26005KT P6SM SCT050 SCT100=

USA.gov is the U.S. government's official web portal to all federal, state and local government web resources and services.